createdAt,value
2018-07-26T00:00:17.751Z,22.10
2018-07-26T00:02:46.715Z,20.47
2018-07-26T00:05:15.736Z,20.13
2018-07-26T00:07:45.540Z,20.50
2018-07-26T00:10:14.045Z,22.30
2018-07-26T00:12:43.056Z,21.07
2018-07-26T00:15:12.036Z,21.87
2018-07-26T00:17:41.051Z,20.80
2018-07-26T00:20:11.217Z,20.50
2018-07-26T00:22:39.908Z,19.50
2018-07-26T00:25:09.038Z,21.00
2018-07-26T00:27:38.059Z,29.30
2018-07-26T00:30:07.483Z,22.03
2018-07-26T00:32:36.498Z,20.00
2018-07-26T00:35:05.568Z,18.60
2018-07-26T00:37:34.669Z,19.30
2018-07-26T00:40:05.715Z,19.23
2018-07-26T00:42:34.817Z,20.17
2018-07-26T00:45:04.451Z,20.90
2018-07-26T00:47:33.608Z,19.10
2018-07-26T00:50:02.163Z,18.00
2018-07-26T00:52:31.545Z,18.83
2018-07-26T00:55:00.598Z,18.70
2018-07-26T00:57:29.604Z,17.57
2018-07-26T00:59:58.668Z,18.47
2018-07-26T01:02:29.013Z,18.90
2018-07-26T01:04:57.981Z,22.53
2018-07-26T01:07:26.515Z,18.50
2018-07-26T01:09:55.445Z,24.13
2018-07-26T01:12:24.061Z,17.60
2018-07-26T01:14:53.079Z,17.10
2018-07-26T01:17:22.395Z,17.67
2018-07-26T01:19:51.382Z,23.90
2018-07-26T01:22:21.701Z,20.10
2018-07-26T01:24:50.854Z,17.60
2018-07-26T01:27:19.986Z,22.23
2018-07-26T01:29:49.249Z,17.00
2018-07-26T01:32:18.227Z,17.93
2018-07-26T01:34:47.260Z,19.87
2018-07-26T01:37:16.300Z,17.80
2018-07-26T01:39:45.347Z,18.03
2018-07-26T01:42:14.769Z,15.50
2018-07-26T01:44:43.772Z,15.97
2018-07-26T01:47:13.022Z,18.73
2018-07-26T01:49:42.029Z,17.67
2018-07-26T01:52:11.380Z,16.57
2018-07-26T01:54:39.968Z,15.20
2018-07-26T01:57:09.088Z,17.40
2018-07-26T01:59:38.124Z,17.53
2018-07-26T02:02:07.567Z,18.47
2018-07-26T02:04:36.726Z,18.00
2018-07-26T02:07:05.297Z,18.03
2018-07-26T02:09:34.469Z,15.00
2018-07-26T02:12:03.533Z,16.37
2018-07-26T02:14:35.185Z,14.97
2018-07-26T02:17:04.601Z,16.57
2018-07-26T02:19:33.657Z,17.87
2018-07-26T02:22:02.753Z,15.23
2018-07-26T02:24:31.830Z,16.93
2018-07-26T02:27:00.814Z,14.70
2018-07-26T02:29:29.789Z,16.13
2018-07-26T02:31:59.011Z,16.60
2018-07-26T02:34:27.623Z,18.20
2018-07-26T02:36:56.884Z,16.37
2018-07-26T02:39:26.106Z,15.23
2018-07-26T02:41:55.083Z,15.93
2018-07-26T02:44:23.979Z,14.83
2018-07-26T02:46:53.044Z,17.90
2018-07-26T02:49:22.056Z,15.90
2018-07-26T02:51:50.860Z,14.60
2018-07-26T02:54:19.474Z,15.40
2018-07-26T02:56:48.600Z,15.97
2018-07-26T02:59:17.673Z,15.53
2018-07-26T03:01:46.726Z,15.50
2018-07-26T03:04:15.793Z,16.30
2018-07-26T03:06:44.821Z,14.37
2018-07-26T03:09:13.920Z,15.77
2018-07-26T03:11:42.989Z,16.43
2018-07-26T03:14:12.163Z,16.00
2018-07-26T03:16:41.214Z,15.20
2018-07-26T03:19:10.397Z,14.63
2018-07-26T03:21:39.428Z,16.20
2018-07-26T03:24:08.501Z,16.33
2018-07-26T03:26:37.618Z,14.90
2018-07-26T03:29:07.428Z,15.77
2018-07-26T03:31:38.808Z,15.83
2018-07-26T03:34:07.676Z,14.93
2018-07-26T03:36:36.754Z,16.40
2018-07-26T03:39:08.352Z,14.53
2018-07-26T03:41:37.532Z,15.93
2018-07-26T03:44:06.573Z,14.77
2018-07-26T03:46:35.622Z,14.83
2018-07-26T03:49:04.779Z,14.03
2018-07-26T03:51:33.837Z,15.50
2018-07-26T03:54:02.889Z,15.33
2018-07-26T03:56:32.351Z,15.67
2018-07-26T03:59:01.481Z,17.07
2018-07-26T04:01:30.521Z,17.17
2018-07-26T04:03:59.609Z,14.27
2018-07-26T04:06:28.700Z,13.30
2018-07-26T04:08:57.754Z,15.87
2018-07-26T04:11:27.160Z,14.27
2018-07-26T04:13:56.223Z,14.17
2018-07-26T04:16:25.549Z,16.17
2018-07-26T04:18:54.590Z,14.70
2018-07-26T04:21:23.665Z,14.57
2018-07-26T04:23:52.701Z,16.43
2018-07-26T04:26:21.981Z,20.83
2018-07-26T04:28:51.027Z,15.50
2018-07-26T04:31:19.762Z,15.90
2018-07-26T04:33:48.870Z,19.57
2018-07-26T04:36:19.565Z,17.03
2018-07-26T04:38:48.669Z,16.77
2018-07-26T04:41:17.823Z,15.50
2018-07-26T04:43:46.450Z,20.83
2018-07-26T04:46:16.247Z,17.63
2018-07-26T04:48:45.359Z,18.27
2018-07-26T04:51:14.418Z,20.80
2018-07-26T04:53:43.777Z,17.77
2018-07-26T04:56:13.092Z,17.23
2018-07-26T04:58:42.126Z,17.27
2018-07-26T05:01:11.207Z,17.20
2018-07-26T05:03:39.791Z,15.17
2018-07-26T05:06:08.801Z,15.77
2018-07-26T05:08:37.914Z,15.73
2018-07-26T05:11:07.237Z,13.47
2018-07-26T05:13:36.237Z,14.37
2018-07-26T05:16:05.325Z,18.40
2018-07-26T05:18:34.327Z,13.23
2018-07-26T05:21:03.374Z,14.03
2018-07-26T05:23:32.345Z,11.90
2018-07-26T05:26:01.316Z,12.57
2018-07-26T05:28:29.805Z,10.80
2018-07-26T05:30:58.855Z,9.60
2018-07-26T05:33:27.815Z,9.53
2018-07-26T05:35:57.457Z,9.27
2018-07-26T05:38:27.429Z,9.07
2018-07-26T05:40:56.686Z,10.17
2018-07-26T05:43:25.645Z,9.70
2018-07-26T05:45:54.636Z,8.70
2018-07-26T05:48:23.872Z,10.70
2018-07-26T05:50:52.423Z,10.70
2018-07-26T05:53:21.489Z,8.80
2018-07-26T05:55:50.445Z,11.23
2018-07-26T05:58:19.012Z,10.10
2018-07-26T06:00:49.136Z,9.33
2018-07-26T06:03:20.920Z,8.20
2018-07-26T06:05:50.129Z,9.30
2018-07-26T06:08:19.359Z,9.30
2018-07-26T06:10:48.364Z,9.77
2018-07-26T06:13:18.312Z,7.73
2018-07-26T06:15:47.298Z,9.30
2018-07-26T06:18:16.882Z,9.60
2018-07-26T06:20:45.881Z,9.70
2018-07-26T06:23:14.906Z,11.40
2018-07-26T06:25:47.487Z,7.20
2018-07-26T06:28:17.786Z,17.67
2018-07-26T06:30:46.998Z,11.10
2018-07-26T06:33:16.211Z,8.30
2018-07-26T06:35:45.152Z,8.30
2018-07-26T06:38:13.740Z,16.67
2018-07-26T06:40:42.897Z,11.37
2018-07-26T06:43:13.522Z,9.50
2018-07-26T06:45:58.078Z,7.00
2018-07-26T06:48:40.080Z,6.97
2018-07-26T06:51:09.315Z,8.20
2018-07-26T06:53:38.382Z,11.23
2018-07-26T06:56:14.650Z,10.83
2018-07-26T06:58:46.766Z,7.17
2018-07-26T07:01:16.524Z,7.57
2018-07-26T07:03:47.668Z,8.77
2018-07-26T07:06:18.635Z,6.83
2018-07-26T07:08:48.365Z,7.93
2018-07-26T07:11:18.083Z,7.10
2018-07-26T07:13:47.710Z,6.93
2018-07-26T07:16:18.179Z,11.93
2018-07-26T07:18:47.939Z,9.70
2018-07-26T07:21:18.671Z,16.93
2018-07-26T07:23:48.214Z,6.50
2018-07-26T07:26:17.457Z,12.60
2018-07-26T07:28:46.770Z,7.63
2018-07-26T07:31:17.087Z,7.90
2018-07-26T07:33:46.897Z,9.13
2018-07-26T07:36:17.293Z,7.50
2018-07-26T07:38:46.606Z,8.27
2018-07-26T07:41:16.897Z,7.60
2018-07-26T07:43:45.716Z,6.70
2018-07-26T07:46:15.314Z,8.07
2018-07-26T07:48:44.826Z,10.43
2018-07-26T07:51:14.964Z,12.70
2018-07-26T07:53:44.105Z,14.73
2018-07-26T07:56:13.340Z,8.77
2018-07-26T07:58:42.542Z,7.27
2018-07-26T08:01:11.673Z,7.20
2018-07-26T08:03:40.866Z,8.57
2018-07-26T08:06:09.964Z,7.30
2018-07-26T08:08:39.148Z,7.47
2018-07-26T08:11:08.692Z,8.17
2018-07-26T08:13:37.421Z,11.00
2018-07-26T08:16:06.736Z,8.70
2018-07-26T08:18:35.825Z,8.20
2018-07-26T08:21:09.106Z,6.27
2018-07-26T08:23:38.298Z,7.00
2018-07-26T08:26:07.418Z,7.90
2018-07-26T08:28:36.548Z,12.30
2018-07-26T08:31:05.745Z,8.33
2018-07-26T08:33:35.425Z,11.13
2018-07-26T08:36:04.125Z,7.53
2018-07-26T08:38:33.837Z,8.20
2018-07-26T08:41:04.830Z,8.93
2018-07-26T08:43:34.489Z,8.43
2018-07-26T08:46:03.625Z,12.37
2018-07-26T08:48:32.637Z,8.13
2018-07-26T08:51:01.702Z,7.07
2018-07-26T08:53:30.921Z,7.30
2018-07-26T08:56:00.819Z,8.50
2018-07-26T08:58:30.314Z,8.87
2018-07-26T09:01:00.924Z,6.53
2018-07-26T09:03:30.777Z,6.87
2018-07-26T09:06:01.524Z,10.43
2018-07-26T09:08:31.054Z,6.93
2018-07-26T09:11:01.399Z,9.33
2018-07-26T09:13:30.729Z,5.50
2018-07-26T09:15:59.872Z,5.97
2018-07-26T09:18:29.194Z,5.43
2018-07-26T09:20:58.280Z,6.53
2018-07-26T09:23:27.437Z,5.70
2018-07-26T09:25:56.104Z,6.50
2018-07-26T09:28:25.335Z,6.07
2018-07-26T09:30:54.510Z,6.63
2018-07-26T09:33:23.998Z,7.40
2018-07-26T09:35:53.296Z,5.13
2018-07-26T09:38:22.443Z,5.30
2018-07-26T09:40:51.636Z,6.20
2018-07-26T09:43:21.224Z,5.10
2018-07-26T09:45:50.496Z,4.50
2018-07-26T09:48:19.618Z,5.33
2018-07-26T09:50:48.849Z,5.17
2018-07-26T09:53:18.681Z,4.80
2018-07-26T09:55:49.385Z,5.27
2018-07-26T09:58:18.811Z,5.23
2018-07-26T10:00:52.798Z,5.23
2018-07-26T10:03:21.902Z,5.50
2018-07-26T10:05:51.014Z,5.90
2018-07-26T10:08:22.062Z,5.70
2018-07-26T10:10:51.216Z,5.00
2018-07-26T10:13:20.505Z,5.90
2018-07-26T10:15:49.911Z,5.30
2018-07-26T10:18:18.750Z,6.13
2018-07-26T10:20:47.899Z,5.73
2018-07-26T10:23:17.351Z,5.47
2018-07-26T10:25:47.132Z,5.03
2018-07-26T10:28:16.936Z,6.00
2018-07-26T10:30:46.109Z,5.37
2018-07-26T10:33:15.508Z,6.07
2018-07-26T10:35:44.687Z,8.90
2018-07-26T10:38:13.903Z,4.90
2018-07-26T10:40:43.037Z,5.67
2018-07-26T10:43:13.133Z,5.97
2018-07-26T10:45:42.488Z,5.10
2018-07-26T10:48:11.242Z,4.73
2018-07-26T10:50:40.452Z,5.10
2018-07-26T10:53:09.839Z,5.00
2018-07-26T10:55:38.951Z,5.93
2018-07-26T10:58:08.101Z,3.93
2018-07-26T11:00:37.338Z,4.80
2018-07-26T11:03:07.153Z,4.60
2018-07-26T11:05:36.499Z,4.73
2018-07-26T11:08:05.758Z,4.50
2018-07-26T11:10:34.967Z,6.70
2018-07-26T11:13:03.636Z,5.03
2018-07-26T11:15:35.321Z,4.70
2018-07-26T11:18:05.553Z,4.30
2018-07-26T11:20:35.746Z,7.33
2018-07-26T11:23:06.070Z,4.13
2018-07-26T11:25:35.281Z,4.23
2018-07-26T11:28:04.422Z,3.80
2018-07-26T11:30:33.932Z,3.70
2018-07-26T11:33:03.485Z,4.33
2018-07-26T11:35:32.678Z,4.30
2018-07-26T11:38:01.846Z,4.00
2018-07-26T11:40:31.032Z,4.40
2018-07-26T11:43:00.144Z,3.90
2018-07-26T11:45:29.012Z,3.93
2018-07-26T11:47:58.184Z,3.77
2018-07-26T11:50:27.510Z,4.10
2018-07-26T11:52:56.581Z,4.63
2018-07-26T11:55:25.765Z,4.20
2018-07-26T11:57:55.120Z,4.33
2018-07-26T12:00:24.432Z,4.50
2018-07-26T12:02:53.723Z,4.70
2018-07-26T12:05:22.920Z,4.67
2018-07-26T12:07:52.013Z,7.53
2018-07-26T12:10:21.117Z,8.90
2018-07-26T12:12:50.844Z,12.83
2018-07-26T12:15:20.635Z,5.60
2018-07-26T12:17:49.896Z,4.63
2018-07-26T12:20:18.756Z,4.40
2018-07-26T12:22:49.124Z,5.40
2018-07-26T12:25:17.811Z,5.33
2018-07-26T12:27:47.614Z,6.07
2018-07-26T12:30:16.762Z,5.73
2018-07-26T12:32:45.792Z,6.50
2018-07-26T12:35:14.922Z,5.33
2018-07-26T12:37:44.582Z,6.33
2018-07-26T12:40:14.147Z,5.80
2018-07-26T12:42:43.480Z,5.80
2018-07-26T12:45:12.264Z,6.07
2018-07-26T12:47:41.358Z,6.50
2018-07-26T12:50:10.561Z,6.57
2018-07-26T12:52:39.705Z,6.23
2018-07-26T12:55:09.508Z,6.30
2018-07-26T12:57:39.681Z,6.40
2018-07-26T13:00:08.920Z,6.00
2018-07-26T13:02:38.110Z,6.50
2018-07-26T13:05:08.120Z,7.00
2018-07-26T13:07:37.617Z,6.67
2018-07-26T13:10:07.922Z,6.10
2018-07-26T13:12:37.136Z,6.80
2018-07-26T13:15:07.012Z,6.90
2018-07-26T13:17:36.157Z,5.77
2018-07-26T13:20:06.738Z,6.70
2018-07-26T13:22:36.157Z,5.90
2018-07-26T13:25:05.834Z,6.67
2018-07-26T13:27:34.985Z,9.43
2018-07-26T13:30:04.428Z,7.23
2018-07-26T13:32:33.632Z,6.50
2018-07-26T13:35:02.765Z,7.83
2018-07-26T13:37:31.462Z,7.60
2018-07-26T13:40:00.986Z,9.90
2018-07-26T13:42:30.558Z,6.00
2018-07-26T13:45:00.478Z,6.40
2018-07-26T13:47:29.788Z,5.20
2018-07-26T13:49:59.031Z,6.33
2018-07-26T13:52:28.999Z,8.13
2018-07-26T13:54:58.770Z,5.87
2018-07-26T13:57:28.423Z,6.33
2018-07-26T13:59:57.789Z,5.77
2018-07-26T14:02:27.705Z,5.67
2018-07-26T14:04:57.220Z,7.17
2018-07-26T14:07:26.503Z,5.07
2018-07-26T14:09:56.325Z,6.13
2018-07-26T14:12:25.532Z,6.43
2018-07-26T14:14:54.764Z,5.60
2018-07-26T14:17:34.601Z,5.10
2018-07-26T14:20:03.863Z,5.77
2018-07-26T14:22:32.499Z,5.33
2018-07-26T14:25:01.749Z,6.27
2018-07-26T14:27:30.776Z,5.80
2018-07-26T14:30:00.577Z,5.50
2018-07-26T14:32:30.875Z,5.47
2018-07-26T14:35:00.714Z,6.03
2018-07-26T14:37:30.917Z,5.63
2018-07-26T14:40:00.502Z,5.63
2018-07-26T14:42:30.343Z,5.03
2018-07-26T14:44:59.990Z,5.40
2018-07-26T14:47:29.547Z,5.17
2018-07-26T14:49:59.892Z,5.13
2018-07-26T14:52:29.918Z,7.20
2018-07-26T14:54:59.707Z,4.87
2018-07-26T14:57:31.406Z,5.20
2018-07-26T15:00:01.408Z,5.67
2018-07-26T15:02:41.649Z,5.20
2018-07-26T15:05:36.709Z,8.77
2018-07-26T15:11:33.313Z,4.87
2018-07-26T15:21:59.498Z,4.77
2018-07-26T15:25:00.322Z,6.10
2018-07-26T15:28:35.989Z,4.63
2018-07-26T15:31:16.888Z,4.70
2018-07-26T15:33:58.849Z,4.47
2018-07-26T15:36:28.725Z,4.73
2018-07-26T15:38:58.911Z,4.50
2018-07-26T15:41:29.115Z,5.37
2018-07-26T15:44:09.860Z,4.67
2018-07-26T15:46:40.205Z,5.37
2018-07-26T15:53:23.470Z,4.97
2018-07-26T15:56:01.381Z,6.20
2018-07-26T15:58:30.533Z,5.53
2018-07-26T16:01:00.341Z,5.03
2018-07-26T16:03:29.429Z,5.10
2018-07-26T16:05:58.456Z,4.97
2018-07-26T16:08:31.241Z,5.63
2018-07-26T16:11:02.390Z,5.27
2018-07-26T16:13:33.627Z,7.33
2018-07-26T16:16:04.906Z,7.93
2018-07-26T16:18:36.033Z,5.40
2018-07-26T16:21:08.900Z,5.00
2018-07-26T16:23:39.309Z,4.77
2018-07-26T16:26:09.627Z,5.03
2018-07-26T16:28:40.084Z,5.33
2018-07-26T16:31:09.703Z,8.57
2018-07-26T16:33:40.488Z,5.40
2018-07-26T16:36:14.932Z,5.43
2018-07-26T16:38:45.158Z,7.90
2018-07-26T16:41:15.413Z,5.10
2018-07-26T16:43:45.487Z,5.57
2018-07-26T16:46:20.848Z,4.70
2018-07-26T16:48:50.668Z,5.00
2018-07-26T16:51:20.375Z,5.60
2018-07-26T16:53:49.937Z,4.70
2018-07-26T16:56:19.958Z,4.93
2018-07-26T16:58:50.485Z,6.47
2018-07-26T17:01:20.831Z,7.00
2018-07-26T17:03:51.271Z,6.40
2018-07-26T17:06:22.140Z,4.97
2018-07-26T17:08:51.937Z,5.23
2018-07-26T17:11:21.445Z,7.87
2018-07-26T17:13:50.907Z,5.53
2018-07-26T17:16:20.359Z,5.67
2018-07-26T17:18:49.821Z,4.80
2018-07-26T17:21:21.676Z,6.73
2018-07-26T17:23:51.444Z,5.83
2018-07-26T17:26:23.051Z,5.30
2018-07-26T17:28:53.623Z,9.40
2018-07-26T17:31:23.622Z,4.57
2018-07-26T17:33:54.218Z,4.73
2018-07-26T17:36:28.380Z,4.83
2018-07-26T17:38:58.797Z,9.50
2018-07-26T17:41:28.343Z,5.80
2018-07-26T17:44:00.241Z,5.03
2018-07-26T17:46:30.591Z,4.87
2018-07-26T17:49:00.139Z,8.13
2018-07-26T17:51:31.748Z,6.60
2018-07-26T17:54:01.149Z,5.87
2018-07-26T17:56:30.539Z,7.10
2018-07-26T17:59:00.067Z,7.50
2018-07-26T18:01:29.412Z,5.90
2018-07-26T18:03:59.873Z,6.33
2018-07-26T18:06:30.640Z,6.80
2018-07-26T18:09:00.071Z,6.03
2018-07-26T18:11:29.712Z,8.27
2018-07-26T18:13:59.761Z,9.67
2018-07-26T18:16:29.397Z,7.60
2018-07-26T18:18:59.081Z,5.80
2018-07-26T18:21:28.871Z,5.13
2018-07-26T18:23:59.722Z,6.97
2018-07-26T18:26:29.575Z,4.70
2018-07-26T18:28:59.348Z,8.30
2018-07-26T18:31:30.114Z,5.33
2018-07-26T18:33:59.850Z,6.03
2018-07-26T18:36:30.350Z,4.90
2018-07-26T18:39:00.113Z,6.03
2018-07-26T18:41:29.793Z,9.33
2018-07-26T18:43:59.484Z,5.93
2018-07-26T18:46:29.272Z,8.20
2018-07-26T18:48:58.944Z,5.07
2018-07-26T18:51:27.799Z,6.10
2018-07-26T18:53:57.814Z,5.60
2018-07-26T18:56:27.525Z,5.00
2018-07-26T18:58:57.157Z,7.83
2018-07-26T19:01:34.340Z,5.37
2018-07-26T19:04:04.069Z,5.23
2018-07-26T19:06:33.731Z,7.43
2018-07-26T19:09:04.413Z,5.87
2018-07-26T19:11:34.385Z,5.67
2018-07-26T19:14:05.726Z,5.90
2018-07-26T19:16:35.348Z,5.73
2018-07-26T19:19:05.261Z,5.90
2018-07-26T19:21:35.080Z,5.97
2018-07-26T19:24:06.557Z,5.50
2018-07-26T19:26:36.566Z,7.33
2018-07-26T19:29:06.707Z,9.47
2018-07-26T19:31:36.797Z,10.67
2018-07-26T19:34:06.889Z,9.10
2018-07-26T19:36:35.842Z,8.77
2018-07-26T19:39:09.374Z,10.40
2018-07-26T19:41:43.840Z,6.80
2018-07-26T19:44:13.974Z,7.70
2018-07-26T19:46:46.011Z,7.70
2018-07-26T19:49:15.973Z,9.00
2018-07-26T19:51:51.036Z,6.50
2018-07-26T19:54:20.900Z,7.60
2018-07-26T19:56:50.475Z,9.27
2018-07-26T19:59:20.237Z,9.33
2018-07-26T20:01:50.113Z,7.30
2018-07-26T20:04:19.510Z,7.30
2018-07-26T20:06:48.929Z,8.37
2018-07-26T20:09:18.184Z,14.37
2018-07-26T20:11:48.207Z,9.00
2018-07-26T20:14:17.567Z,10.07
2018-07-26T20:16:46.959Z,7.87
2018-07-26T20:19:16.269Z,7.57
2018-07-26T20:21:45.587Z,9.77
2018-07-26T20:24:15.780Z,7.17
2018-07-26T20:26:47.013Z,7.87
2018-07-26T20:29:16.910Z,6.73
2018-07-26T20:31:49.336Z,7.77
2018-07-26T20:34:19.429Z,7.63
2018-07-26T20:36:49.324Z,8.23
2018-07-26T20:39:19.567Z,8.83
2018-07-26T20:41:50.905Z,8.00
2018-07-26T20:44:20.091Z,9.13
2018-07-26T20:46:50.104Z,9.43
2018-07-26T20:49:21.397Z,8.40
2018-07-26T20:51:51.324Z,8.07
2018-07-26T20:54:22.085Z,9.80
2018-07-26T20:56:52.015Z,8.83
2018-07-26T20:59:22.224Z,8.60
2018-07-26T21:01:52.705Z,9.50
2018-07-26T21:04:22.724Z,9.13
2018-07-26T21:06:52.780Z,9.57
2018-07-26T21:09:22.772Z,8.43
2018-07-26T21:11:52.553Z,8.73
2018-07-26T21:14:22.741Z,13.13
2018-07-26T21:16:52.609Z,9.63
2018-07-26T21:19:22.262Z,10.07
2018-07-26T21:21:51.982Z,13.83
2018-07-26T21:24:20.941Z,11.77
2018-07-26T21:26:50.994Z,10.70
2018-07-26T21:29:21.706Z,10.10
2018-07-26T21:31:51.660Z,13.87
2018-07-26T21:34:22.393Z,13.90
2018-07-26T21:36:53.658Z,8.87
2018-07-26T21:39:23.624Z,9.43
2018-07-26T21:41:55.143Z,10.77
2018-07-26T21:44:25.022Z,9.70
2018-07-26T21:46:55.039Z,14.13
2018-07-26T21:49:25.987Z,9.27
2018-07-26T21:51:55.951Z,11.60
2018-07-26T21:54:25.371Z,9.77
2018-07-26T21:56:54.702Z,10.67
2018-07-26T21:59:24.116Z,9.13
2018-07-26T22:01:53.480Z,9.70
2018-07-26T22:04:23.118Z,9.43
2018-07-26T22:06:52.535Z,12.00
2018-07-26T22:09:22.055Z,10.27
2018-07-26T22:11:51.360Z,8.87
2018-07-26T22:14:20.196Z,9.50
2018-07-26T22:16:50.435Z,8.77
2018-07-26T22:19:19.824Z,13.10
2018-07-26T22:21:49.165Z,8.73
2018-07-26T22:24:18.538Z,8.67
2018-07-26T22:26:48.184Z,11.90
2018-07-26T22:29:18.249Z,12.13
2018-07-26T22:31:47.600Z,10.87
2018-07-26T22:34:16.903Z,12.77
2018-07-26T22:36:46.273Z,12.80
2018-07-26T22:39:15.641Z,8.53
2018-07-26T22:41:45.063Z,9.27
2018-07-26T22:44:14.424Z,10.60
2018-07-26T22:46:43.917Z,8.63
2018-07-26T22:49:13.378Z,8.23
2018-07-26T22:51:42.731Z,8.63
2018-07-26T22:54:12.176Z,11.30
2018-07-26T22:56:41.621Z,11.63
2018-07-26T22:59:11.015Z,8.33
2018-07-26T23:01:40.340Z,6.33
2018-07-26T23:04:09.699Z,7.60
2018-07-26T23:06:39.079Z,8.93
2018-07-26T23:09:10.510Z,6.90
2018-07-26T23:11:40.348Z,10.33
2018-07-26T23:14:09.428Z,7.70
2018-07-26T23:16:39.945Z,8.70
2018-07-26T23:19:09.284Z,7.70
2018-07-26T23:21:38.648Z,9.03
2018-07-26T23:24:09.015Z,8.13
2018-07-26T23:26:38.460Z,7.73
2018-07-26T23:29:08.515Z,8.43
2018-07-26T23:31:37.994Z,7.73
2018-07-26T23:34:07.370Z,10.63
2018-07-26T23:36:37.122Z,8.67
2018-07-26T23:39:09.202Z,8.87
2018-07-26T23:41:37.946Z,8.40
2018-07-26T23:44:07.337Z,8.47
2018-07-26T23:46:37.048Z,8.03
2018-07-26T23:49:06.396Z,9.97
2018-07-26T23:51:35.705Z,8.83
2018-07-26T23:54:05.123Z,8.00
2018-07-26T23:56:34.501Z,7.57
2018-07-26T23:59:03.902Z,8.37
